Time;durP1;ratioP1;P1;durP2;ratioP2;P2;SDS_P1;SDS_P2;PMS_P1;PMS_P2;Temp;Humidity;BMP_temperature;BMP_pressure;BME280_temperature;BME280_humidity;BME280_pressure;Samples;Min_cycle;Max_cycle;Signal;HPM_P1;HPM_P2
2023/09/18 00:00:32;;;;;;;;;;;;;;;21.97;69.89;97447.94;586902;242;67747;-65
2023/09/18 00:03:02;;;;;;;;;;;;;;;21.98;70.00;97456.76;586821;242;67239;-65
2023/09/18 00:05:29;;;;;;;;;;;;;;;21.97;70.38;97445.25;586892;242;62974;-65
2023/09/18 00:07:57;;;;;;;;;;;;;;;21.97;70.46;97452.48;586907;242;66975;-65
2023/09/18 00:10:26;;;;;;;;;;;;;;;21.98;69.91;97451.41;586938;242;66844;-65
2023/09/18 00:12:53;;;;;;;;;;;;;;;21.97;70.39;97449.81;586896;242;63104;-65
2023/09/18 00:15:21;;;;;;;;;;;;;;;21.98;70.77;97452.20;586892;242;64429;-68
2023/09/18 00:17:49;;;;;;;;;;;;;;;21.97;70.53;97447.13;586868;242;64665;-68
2023/09/18 00:20:17;;;;;;;;;;;;;;;21.96;70.48;97443.62;586919;242;65068;-68
2023/09/18 00:22:45;;;;;;;;;;;;;;;21.96;70.19;97443.62;586908;242;64595;-68
2023/09/18 00:25:15;;;;;;;;;;;;;;;21.95;69.97;97445.51;586888;242;66644;-68
2023/09/18 00:27:43;;;;;;;;;;;;;;;21.96;69.92;97448.98;586876;242;64989;-68
2023/09/18 00:30:11;;;;;;;;;;;;;;;21.98;70.57;97454.08;586837;242;67408;-68
2023/09/18 00:32:39;;;;;;;;;;;;;;;21.95;69.97;97453.53;586867;239;66857;-68
2023/09/18 00:35:07;;;;;;;;;;;;;;;21.96;70.11;97459.69;586931;242;62848;-68
2023/09/18 00:37:36;;;;;;;;;;;;;;;21.95;70.00;97453.53;586919;242;66996;-68
2023/09/18 00:40:04;;;;;;;;;;;;;;;21.96;69.97;97454.34;586908;242;66682;-68
2023/09/18 00:42:32;;;;;;;;;;;;;;;21.96;69.92;97462.36;586827;242;63139;-68
2023/09/18 00:45:00;;;;;;;;;;;;;;;21.95;69.91;97458.09;586883;242;66942;-68
2023/09/18 00:47:28;;;;;;;;;;;;;;;21.94;69.99;97459.97;586894;242;66686;-68
2023/09/18 00:49:56;;;;;;;;;;;;;;;21.95;70.25;97463.45;586943;242;62950;-68
2023/09/18 00:52:24;;;;;;;;;;;;;;;21.95;70.72;97463.45;586838;242;67244;-68
2023/09/18 00:54:53;;;;;;;;;;;;;;;21.95;70.60;97461.56;586887;242;64876;-68
2023/09/18 00:57:21;;;;;;;;;;;;;;;21.95;70.73;97453.53;586850;242;66342;-68
2023/09/18 00:59:48;;;;;;;;;;;;;;;21.94;70.70;97459.17;586869;242;64428;-65
2023/09/18 01:02:16;;;;;;;;;;;;;;;21.93;70.88;97461.05;586931;242;64611;-65
2023/09/18 01:04:44;;;;;;;;;;;;;;;21.94;70.86;97462.65;586891;242;65100;-65
2023/09/18 01:07:11;;;;;;;;;;;;;;;21.93;70.20;97461.05;586884;242;64416;-65
2023/09/18 01:09:39;;;;;;;;;;;;;;;21.93;70.14;97461.05;586845;242;63955;-65
2023/09/18 01:12:09;;;;;;;;;;;;;;;21.93;69.95;97470.92;586883;242;65051;-65
2023/09/18 01:14:54;;;;;;;;;;;;;;;21.94;69.81;97467.20;586948;242;67001;-65
2023/09/18 01:17:22;;;;;;;;;;;;;;;21.94;69.90;97462.65;586903;242;65176;-65
2023/09/18 01:19:50;;;;;;;;;;;;;;;21.94;69.69;97467.20;586877;242;62786;-65
2023/09/18 01:22:18;;;;;;;;;;;;;;;21.94;70.15;97473.35;586848;242;65455;-65
2023/09/18 01:24:50;;;;;;;;;;;;;;;21.94;69.82;97464.53;586876;242;66710;-65
2023/09/18 01:27:18;;;;;;;;;;;;;;;21.93;69.89;97477.11;586886;242;62685;-65
2023/09/18 01:29:46;;;;;;;;;;;;;;;21.93;69.84;97460.22;586938;242;66932;-65
2023/09/18 01:32:14;;;;;;;;;;;;;;;21.93;69.69;97460.22;586846;239;64255;-65
2023/09/18 01:34:43;;;;;;;;;;;;;;;21.93;69.61;97461.05;586881;242;65174;-65
2023/09/18 01:37:12;;;;;;;;;;;;;;;21.93;70.21;97466.41;586818;241;66629;-65
2023/09/18 01:39:40;;;;;;;;;;;;;;;21.93;70.09;97470.92;586875;242;66800;-65
2023/09/18 01:42:11;;;;;;;;;;;;;;;21.93;70.51;97466.41;586901;242;65106;-65
2023/09/18 01:44:38;;;;;;;;;;;;;;;21.93;70.44;97465.58;586887;242;64877;-65
2023/09/18 01:47:10;;;;;;;;;;;;;;;21.91;70.32;97470.41;586844;242;66835;-65
2023/09/18 01:49:38;;;;;;;;;;;;;;;21.91;69.91;97467.73;586863;239;64979;-64
2023/09/18 01:52:08;;;;;;;;;;;;;;;21.92;69.81;97470.13;586900;242;64290;-65
2023/09/18 01:54:37;;;;;;;;;;;;;;;21.91;69.92;97471.21;586847;242;66849;-65
2023/09/18 01:57:07;;;;;;;;;;;;;;;21.91;69.71;97470.41;586921;242;62693;-65
2023/09/18 01:59:35;;;;;;;;;;;;;;;21.91;69.58;97468.53;586875;242;67206;-65
2023/09/18 02:02:07;;;;;;;;;;;;;;;21.91;69.47;97462.39;586862;242;64543;-65
2023/09/18 02:04:34;;;;;;;;;;;;;;;21.91;69.92;97457.83;586888;242;63058;-65
2023/09/18 02:07:02;;;;;;;;;;;;;;;21.91;69.86;97468.53;586856;242;64353;-65
2023/09/18 02:09:29;;;;;;;;;;;;;;;21.91;69.83;97459.70;586900;242;66792;-65
2023/09/18 02:11:57;;;;;;;;;;;;;;;21.91;69.77;97457.03;586877;242;65085;-64
2023/09/18 02:14:25;;;;;;;;;;;;;;;21.89;69.75;97459.96;586856;242;64499;-65
2023/09/18 02:16:53;;;;;;;;;;;;;;;21.90;69.59;97460.76;586802;242;67693;-65
2023/09/18 02:19:21;;;;;;;;;;;;;;;21.90;69.46;97456.20;586872;242;65031;-65
2023/09/18 02:21:49;;;;;;;;;;;;;;;21.90;69.34;97458.08;586965;242;65419;-65
2023/09/18 02:24:16;;;;;;;;;;;;;;;21.90;69.56;97460.76;586950;242;63928;-65
2023/09/18 02:26:45;;;;;;;;;;;;;;;21.90;69.95;97466.91;586916;242;65248;-65
2023/09/18 02:29:14;;;;;;;;;;;;;;;21.90;69.48;97461.55;586928;242;66456;-68
2023/09/18 02:31:42;;;;;;;;;;;;;;;21.89;69.45;97459.96;588927;239;64264;-68
2023/09/18 02:34:09;;;;;;;;;;;;;;;21.89;69.44;97467.98;591590;240;65143;-68
2023/09/18 02:36:38;;;;;;;;;;;;;;;21.89;69.80;97459.96;591549;240;64110;-68
2023/09/18 02:39:06;;;;;;;;;;;;;;;21.90;69.86;97460.76;591520;240;66551;-69
2023/09/18 02:41:34;;;;;;;;;;;;;;;21.89;69.59;97465.31;591528;240;65135;-68
2023/09/18 02:44:01;;;;;;;;;;;;;;;21.89;69.89;97465.31;591529;240;66630;-68
2023/09/18 02:46:29;;;;;;;;;;;;;;;21.90;70.37;97472.26;591558;240;66854;-68
2023/09/18 02:48:57;;;;;;;;;;;;;;;21.89;69.42;97470.66;591553;240;62843;-68
2023/09/18 02:51:24;;;;;;;;;;;;;;;21.89;69.45;97470.66;591516;240;64415;-68
2023/09/18 02:53:52;;;;;;;;;;;;;;;21.89;69.40;97469.86;591445;240;67465;-68
2023/09/18 02:56:20;;;;;;;;;;;;;;;21.89;69.37;97475.22;589077;240;64960;-68
2023/09/18 02:58:47;;;;;;;;;;;;;;;21.89;69.44;97470.66;591516;240;68266;-69
2023/09/18 03:01:15;;;;;;;;;;;;;;;21.88;70.05;97477.09;589188;240;68085;-68
2023/09/18 03:03:43;;;;;;;;;;;;;;;21.88;69.68;97474.42;591518;240;63078;-68
2023/09/18 03:06:10;;;;;;;;;;;;;;;21.88;69.85;97479.77;591510;240;66957;-65
2023/09/18 03:08:38;;;;;;;;;;;;;;;21.88;69.88;97477.09;591484;240;64771;-65
2023/09/18 03:11:13;;;;;;;;;;;;;;;21.88;69.59;97476.27;591506;240;65835;-65
2023/09/18 03:13:47;;;;;;;;;;;;;;;21.87;69.48;97483.50;591560;240;67004;-65
2023/09/18 03:16:17;;;;;;;;;;;;;;;21.87;69.49;97483.50;591517;240;67324;-66
2023/09/18 03:18:46;;;;;;;;;;;;;;;21.88;69.37;97485.13;591481;240;65119;-65
2023/09/18 03:21:13;;;;;;;;;;;;;;;21.88;69.62;97481.62;591472;240;64269;-65
2023/09/18 03:23:41;;;;;;;;;;;;;;;21.88;69.48;97481.62;591493;240;66847;-65
2023/09/18 03:26:08;;;;;;;;;;;;;;;21.87;69.29;97488.84;591559;240;62746;-65
2023/09/18 03:28:36;;;;;;;;;;;;;;;21.87;69.34;97483.50;591512;240;66902;-65
2023/09/18 03:31:05;;;;;;;;;;;;;;;21.87;69.37;97478.14;590602;239;64316;-65
2023/09/18 03:33:33;;;;;;;;;;;;;;;21.88;70.02;97485.13;586875;242;64724;-65
2023/09/18 03:36:00;;;;;;;;;;;;;;;21.87;69.53;97483.50;586877;242;64526;-65
2023/09/18 03:38:30;;;;;;;;;;;;;;;21.87;69.54;97488.05;586946;242;51391;-66
2023/09/18 03:40:59;;;;;;;;;;;;;;;21.87;69.92;97483.50;586928;242;63033;-65
2023/09/18 03:43:26;;;;;;;;;;;;;;;21.86;70.16;97484.58;586884;242;67386;-65
2023/09/18 03:45:54;;;;;;;;;;;;;;;21.86;69.39;97492.60;586834;239;67317;-65
2023/09/18 03:48:22;;;;;;;;;;;;;;;21.87;69.64;97490.72;586865;242;63093;-65
2023/09/18 03:50:49;;;;;;;;;;;;;;;21.86;70.00;97487.25;586884;242;67415;-65
2023/09/18 03:53:17;;;;;;;;;;;;;;;21.86;69.51;97487.25;586881;242;67727;-65
2023/09/18 03:55:45;;;;;;;;;;;;;;;21.86;69.25;97486.45;586871;242;62688;-65
2023/09/18 03:58:13;;;;;;;;;;;;;;;21.85;69.41;97491.00;586878;242;64561;-65
2023/09/18 04:00:40;;;;;;;;;;;;;;;21.85;69.15;97491.00;586840;242;67033;-65
2023/09/18 04:03:09;;;;;;;;;;;;;;;21.85;69.08;97491.00;586907;242;65077;-65
2023/09/18 04:05:36;;;;;;;;;;;;;;;21.86;69.11;97492.60;586928;242;64351;-65
2023/09/18 04:08:04;;;;;;;;;;;;;;;21.86;69.68;97495.28;586853;242;67245;-65
2023/09/18 04:10:32;;;;;;;;;;;;;;;21.87;69.74;97488.05;586837;242;65870;-65
2023/09/18 04:13:00;;;;;;;;;;;;;;;21.86;69.65;97492.60;586839;242;67633;-65
2023/09/18 04:15:30;;;;;;;;;;;;;;;21.85;69.65;97496.36;586886;242;67819;-65
2023/09/18 04:17:57;;;;;;;;;;;;;;;21.84;69.41;97494.73;586935;242;65086;-65
2023/09/18 04:20:25;;;;;;;;;;;;;;;21.85;69.33;97488.33;586822;242;65122;-65
2023/09/18 04:22:54;;;;;;;;;;;;;;;21.85;69.29;97495.53;586828;242;67000;-65
2023/09/18 04:25:22;;;;;;;;;;;;;;;21.85;69.21;97491.00;585919;241;62695;-69
2023/09/18 04:27:52;;;;;;;;;;;;;;;21.84;69.08;97489.38;586880;242;67282;-69
2023/09/18 04:30:19;;;;;;;;;;;;;;;21.85;69.18;97484.83;586867;242;64461;-68
2023/09/18 04:32:47;;;;;;;;;;;;;;;21.84;69.09;97489.38;591014;239;65802;-68
2023/09/18 04:35:14;;;;;;;;;;;;;;;21.84;68.97;97484.03;591463;240;67190;-69
2023/09/18 04:37:42;;;;;;;;;;;;;;;21.85;69.02;97492.85;591470;240;64961;-69
2023/09/18 04:40:11;;;;;;;;;;;;;;;21.84;69.33;97485.91;591413;240;63744;-69
2023/09/18 04:42:43;;;;;;;;;;;;;;;21.84;69.17;97486.70;591476;240;65104;-69
2023/09/18 04:45:11;;;;;;;;;;;;;;;21.84;69.17;97484.03;591515;240;67046;-69
2023/09/18 04:47:39;;;;;;;;;;;;;;;21.83;69.20;97485.11;591471;240;65191;-69
2023/09/18 04:50:09;;;;;;;;;;;;;;;21.84;69.00;97485.91;591482;240;67934;-68
2023/09/18 04:52:37;;;;;;;;;;;;;;;21.83;69.29;97495.81;591455;240;67263;-69
2023/09/18 04:55:10;;;;;;;;;;;;;;;21.83;69.36;97493.13;591458;240;65171;-69
2023/09/18 04:57:35;;;;;;;;;;;;;;;21.83;69.42;97490.46;591392;240;67298;-69
2023/09/18 05:00:03;;;;;;;;;;;;;;;21.83;69.04;97497.69;591424;240;66258;-69
2023/09/18 05:02:31;;;;;;;;;;;;;;;21.82;68.96;97490.71;591447;240;65089;-69
2023/09/18 05:04:58;;;;;;;;;;;;;;;21.83;69.12;97495.81;591445;240;68337;-68
2023/09/18 05:07:26;;;;;;;;;;;;;;;21.83;69.22;97498.48;591461;240;67060;-69
2023/09/18 05:09:53;;;;;;;;;;;;;;;21.83;69.53;97489.66;591522;240;62677;-69
2023/09/18 05:12:22;;;;;;;;;;;;;;;21.82;69.61;97491.51;591517;240;65771;-69
2023/09/18 05:14:51;;;;;;;;;;;;;;;21.81;69.21;97500.61;591485;240;67848;-69
2023/09/18 05:17:18;;;;;;;;;;;;;;;21.82;69.31;97491.51;591483;240;65051;-69
2023/09/18 05:19:46;;;;;;;;;;;;;;;21.82;69.31;97491.51;591459;240;66819;-69
2023/09/18 05:22:13;;;;;;;;;;;;;;;21.83;69.61;97492.34;591458;240;66780;-69
2023/09/18 05:24:41;;;;;;;;;;;;;;;21.82;69.41;97491.51;591495;240;62711;-69
2023/09/18 05:27:10;;;;;;;;;;;;;;;21.81;69.01;97495.27;591480;240;67325;-65
2023/09/18 05:29:37;;;;;;;;;;;;;;;21.82;69.08;97496.86;591458;240;64800;-65
2023/09/18 05:32:05;;;;;;;;;;;;;;;21.82;69.25;97491.51;588633;239;62848;-66
2023/09/18 05:34:32;;;;;;;;;;;;;;;21.80;68.85;97490.99;586852;239;65050;-65
2023/09/18 05:37:00;;;;;;;;;;;;;;;21.81;68.91;97489.91;586900;242;67188;-65
2023/09/18 05:39:28;;;;;;;;;;;;;;;21.81;68.67;97489.91;586867;242;65007;-66
2023/09/18 05:41:55;;;;;;;;;;;;;;;21.81;68.61;97489.11;586853;242;67061;-65
2023/09/18 05:44:23;;;;;;;;;;;;;;;21.82;68.92;97488.03;586729;239;67248;-67
2023/09/18 05:46:51;;;;;;;;;;;;;;;21.81;68.80;97489.91;586826;242;64902;-66
2023/09/18 05:49:19;;;;;;;;;;;;;;;21.81;68.47;97494.47;586860;242;64962;-71
2023/09/18 05:51:48;;;;;;;;;;;;;;;21.81;68.50;97491.80;586857;242;64925;-68
2023/09/18 05:54:15;;;;;;;;;;;;;;;21.80;68.51;97493.67;586154;242;62800;-69
2023/09/18 05:56:43;;;;;;;;;;;;;;;21.80;68.29;97499.02;586806;242;66879;-68
2023/09/18 05:59:10;;;;;;;;;;;;;;;21.79;68.14;97502.74;586826;242;66703;-69
2023/09/18 06:01:38;;;;;;;;;;;;;;;21.79;68.22;97499.27;586701;242;63030;-69
2023/09/18 06:04:05;;;;;;;;;;;;;;;21.79;67.79;97501.95;586518;242;68224;-68
2023/09/18 06:06:33;;;;;;;;;;;;;;;21.78;67.96;97505.70;586750;239;64494;-68
2023/09/18 06:09:01;;;;;;;;;;;;;;;21.79;67.85;97499.27;586749;242;62947;-71
2023/09/18 06:11:29;;;;;;;;;;;;;;;21.78;67.59;97501.14;586788;242;67146;-69
2023/09/18 06:13:56;;;;;;;;;;;;;;;21.77;67.11;97501.40;586718;242;65026;-69
2023/09/18 06:16:24;;;;;;;;;;;;;;;21.77;67.39;97510.25;586806;242;65064;-69
2023/09/18 06:18:52;;;;;;;;;;;;;;;21.77;67.28;97514.77;586785;242;67250;-70
2023/09/18 06:21:20;;;;;;;;;;;;;;;21.77;66.53;97520.12;586698;242;67034;-68
2023/09/18 06:23:47;;;;;;;;;;;;;;;21.79;68.51;97526.02;586760;242;63863;-68
2023/09/18 06:26:15;;;;;;;;;;;;;;;21.81;68.29;97518.55;586785;242;65338;-67
2023/09/18 06:28:42;;;;;;;;;;;;;;;21.83;67.94;97519.09;586799;242;64754;-68
2023/09/18 06:31:11;;;;;;;;;;;;;;;21.82;67.67;97517.47;588396;239;64923;-68
2023/09/18 06:33:39;;;;;;;;;;;;;;;21.84;67.76;97523.36;594069;239;66672;-68
2023/09/18 06:36:06;;;;;;;;;;;;;;;21.85;67.58;97522.28;594051;239;67419;-66
2023/09/18 06:38:34;;;;;;;;;;;;;;;21.85;67.33;97525.79;594096;239;62682;-65
2023/09/18 06:41:01;;;;;;;;;;;;;;;21.87;67.54;97522.83;594014;239;65816;-65
2023/09/18 06:43:28;;;;;;;;;;;;;;;21.89;67.53;97523.37;594058;239;66727;-64
2023/09/18 06:45:57;;;;;;;;;;;;;;;21.90;67.67;97523.10;594045;239;64965;-65
2023/09/18 06:48:25;;;;;;;;;;;;;;;21.90;67.77;97519.62;594049;239;65575;-65
2023/09/18 06:50:53;;;;;;;;;;;;;;;21.91;67.52;97531.95;594076;239;66591;-65
2023/09/18 06:53:21;;;;;;;;;;;;;;;21.90;66.98;97523.10;593966;239;64889;-66
2023/09/18 06:55:48;;;;;;;;;;;;;;;21.91;66.97;97518.58;593094;239;67080;-66
2023/09/18 06:58:18;;;;;;;;;;;;;;;21.92;67.42;97512.14;593756;239;64682;-66
2023/09/18 07:00:46;;;;;;;;;;;;;;;21.92;67.22;97518.30;593803;239;65058;-66
2023/09/18 07:03:13;;;;;;;;;;;;;;;21.91;67.33;97511.34;593857;239;67225;-67
2023/09/18 07:05:48;;;;;;;;;;;;;;;21.90;67.31;97516.95;593414;239;66907;-68
2023/09/18 07:08:11;;;;;;;;;;;;;;;21.89;67.32;97515.35;593209;239;62791;-66
2023/09/18 07:10:40;;;;;;;;;;;;;;;21.88;67.71;97509.20;593824;239;67308;-64
2023/09/18 07:13:07;;;;;;;;;;;;;;;21.88;68.46;97519.08;593440;239;67043;-68
2023/09/18 07:15:35;;;;;;;;;;;;;;;21.87;68.31;97515.60;593849;239;62866;-68
2023/09/18 07:18:03;;;;;;;;;;;;;;;21.88;68.31;97519.08;593672;239;67425;-68
2023/09/18 07:20:32;;;;;;;;;;;;;;;21.87;68.15;97514.80;594033;239;64940;-67
2023/09/18 07:22:59;;;;;;;;;;;;;;;21.87;68.15;97520.95;594098;239;64921;-68
2023/09/18 07:25:27;;;;;;;;;;;;;;;21.87;68.52;97520.95;594078;239;64736;-67
2023/09/18 07:27:54;;;;;;;;;;;;;;;21.86;68.60;97530.06;594004;239;67299;-68
2023/09/18 07:30:26;;;;;;;;;;;;;;;21.85;68.63;97523.11;594140;239;62773;-68
2023/09/18 07:32:51;;;;;;;;;;;;;;;21.86;68.29;97527.39;587175;239;64829;-68
2023/09/18 07:35:19;;;;;;;;;;;;;;;21.86;68.35;97529.27;586799;242;66673;-67
2023/09/18 07:37:47;;;;;;;;;;;;;;;21.88;67.33;97532.45;586775;242;65027;-68
2023/09/18 07:40:15;;;;;;;;;;;;;;;21.89;68.21;97532.20;586798;242;67264;-68
2023/09/18 07:42:46;;;;;;;;;;;;;;;21.89;68.31;97526.86;586849;242;66885;-67
2023/09/18 07:45:14;;;;;;;;;;;;;;;21.93;68.74;97537.83;586862;242;65170;-67
2023/09/18 07:47:41;;;;;;;;;;;;;;;21.93;69.20;97535.98;586329;242;64921;-66
2023/09/18 07:50:09;;;;;;;;;;;;;;;21.95;70.06;97527.67;586078;242;65447;-67
2023/09/18 07:52:37;;;;;;;;;;;;;;;21.95;70.02;97528.47;586779;242;62631;-67
2023/09/18 07:55:04;;;;;;;;;;;;;;;21.94;69.84;97526.88;586706;242;65102;-67
2023/09/18 07:57:34;;;;;;;;;;;;;;;21.96;70.34;97518.56;586786;242;67038;-67
2023/09/18 08:00:07;;;;;;;;;;;;;;;21.97;70.29;97519.39;586755;242;65657;-66
2023/09/18 08:02:35;;;;;;;;;;;;;;;21.97;69.76;97519.39;586604;242;43495;-65
2023/09/18 08:05:02;;;;;;;;;;;;;;;21.97;70.05;97508.69;586812;242;64535;-66
2023/09/18 08:07:30;;;;;;;;;;;;;;;21.98;69.67;97510.28;586803;242;62802;-66
2023/09/18 08:09:58;;;;;;;;;;;;;;;21.99;70.27;97511.88;586777;242;67100;-65
2023/09/18 08:12:25;;;;;;;;;;;;;;;22.00;71.38;97510.83;586823;242;66971;-65
2023/09/18 08:14:53;;;;;;;;;;;;;;;21.99;70.25;97507.36;586743;242;62848;-67
2023/09/18 08:17:20;;;;;;;;;;;;;;;21.99;70.87;97506.52;586571;242;65145;-66
2023/09/18 08:19:49;;;;;;;;;;;;;;;22.00;71.05;97508.95;586769;242;64820;-68
2023/09/18 08:22:18;;;;;;;;;;;;;;;21.98;70.52;97500.37;586815;242;64875;-67
2023/09/18 08:24:47;;;;;;;;;;;;;;;22.01;71.36;97499.84;586685;242;65766;-65
2023/09/18 08:27:17;;;;;;;;;;;;;;;22.00;71.15;97502.80;586747;242;66877;-65
2023/09/18 08:29:45;;;;;;;;;;;;;;;22.00;70.66;97500.92;586745;242;65189;-65
2023/09/18 08:32:13;;;;;;;;;;;;;;;22.01;71.08;97499.04;586116;239;67186;-65
2023/09/18 08:34:40;;;;;;;;;;;;;;;22.02;71.27;97496.11;586539;242;66623;-66
2023/09/18 08:37:08;;;;;;;;;;;;;;;22.01;71.04;97491.02;586144;242;64852;-66
2023/09/18 08:39:37;;;;;;;;;;;;;;;22.02;71.27;97496.11;586490;242;67394;-67
2023/09/18 08:42:05;;;;;;;;;;;;;;;22.00;67.76;97494.77;586298;242;65099;-67
2023/09/18 08:44:33;;;;;;;;;;;;;;;22.00;70.17;97486.74;586600;242;66068;-68
2023/09/18 08:47:02;;;;;;;;;;;;;;;22.00;70.11;97492.09;586678;242;67150;-66
2023/09/18 08:49:30;;;;;;;;;;;;;;;22.00;70.21;97492.09;586766;242;67068;-65
2023/09/18 08:51:57;;;;;;;;;;;;;;;22.00;70.18;97492.09;586501;239;63671;-65
2023/09/18 08:54:25;;;;;;;;;;;;;;;21.99;69.86;97495.82;586329;242;66929;-64
2023/09/18 08:56:54;;;;;;;;;;;;;;;21.99;70.49;97487.80;586679;242;65173;-67
2023/09/18 08:59:23;;;;;;;;;;;;;;;21.98;70.95;97483.52;586679;242;65146;-67
2023/09/18 09:01:51;;;;;;;;;;;;;;;21.97;70.89;97481.92;586495;242;66825;-67
2023/09/18 09:04:18;;;;;;;;;;;;;;;21.96;71.09;97489.12;586648;242;65035;-64
2023/09/18 09:06:45;;;;;;;;;;;;;;;21.97;70.62;97484.59;586554;242;62846;-67
2023/09/18 09:09:14;;;;;;;;;;;;;;;21.96;71.01;97483.77;586671;242;64797;-67
2023/09/18 09:11:43;;;;;;;;;;;;;;;21.95;71.10;97480.30;586285;242;66986;-68
2023/09/18 09:14:18;;;;;;;;;;;;;;;21.95;71.43;97480.30;586065;241;65008;-67
2023/09/18 09:16:50;;;;;;;;;;;;;;;21.94;71.61;97476.03;586731;242;67355;-67
2023/09/18 09:19:17;;;;;;;;;;;;;;;21.95;71.89;97474.95;586704;242;64845;-67
2023/09/18 09:21:46;;;;;;;;;;;;;;;21.95;71.98;97474.15;586621;242;63109;-67
2023/09/18 09:24:14;;;;;;;;;;;;;;;21.94;71.93;97467.20;586728;242;67226;-67
2023/09/18 09:26:42;;;;;;;;;;;;;;;21.94;72.13;97476.03;586717;242;64730;-68
2023/09/18 09:29:18;;;;;;;;;;;;;;;21.93;71.98;97474.43;586739;242;65150;-67
2023/09/18 09:31:46;;;;;;;;;;;;;;;21.94;71.89;97480.58;586580;239;67019;-67
2023/09/18 09:34:15;;;;;;;;;;;;;;;21.93;71.87;97474.43;586703;242;64929;-67
2023/09/18 09:36:55;;;;;;;;;;;;;;;21.93;71.90;97477.11;586423;241;65253;-67
2023/09/18 09:39:25;;;;;;;;;;;;;;;21.94;72.31;97480.58;586702;242;67075;-66
2023/09/18 09:41:52;;;;;;;;;;;;;;;21.93;71.49;97481.62;586691;242;66914;-67
2023/09/18 09:44:20;;;;;;;;;;;;;;;21.92;72.01;97480.03;586714;239;63645;-67
2023/09/18 09:46:48;;;;;;;;;;;;;;;21.92;72.43;97469.33;586724;242;65133;-67
2023/09/18 09:49:16;;;;;;;;;;;;;;;21.92;71.87;97477.36;586673;242;66770;-66
2023/09/18 09:51:44;;;;;;;;;;;;;;;21.93;71.54;97462.90;586702;242;62792;-67
2023/09/18 09:54:12;;;;;;;;;;;;;;;21.92;71.57;97462.10;586657;242;64883;-67
2023/09/18 09:56:43;;;;;;;;;;;;;;;21.93;71.74;97461.05;586643;242;67166;-66
2023/09/18 09:59:11;;;;;;;;;;;;;;;21.92;71.63;97462.10;586714;242;63027;-67
2023/09/18 10:01:40;;;;;;;;;;;;;;;21.93;71.57;97461.05;586710;242;67041;-67
2023/09/18 10:04:17;;;;;;;;;;;;;;;21.93;71.46;97470.92;586626;242;67217;-68
2023/09/18 10:06:46;;;;;;;;;;;;;;;21.93;71.53;97460.22;586706;242;66094;-67
2023/09/18 10:09:14;;;;;;;;;;;;;;;21.92;71.59;97459.42;586718;242;65088;-66
2023/09/18 10:11:44;;;;;;;;;;;;;;;21.94;71.25;97461.84;586621;242;67894;-66
2023/09/18 10:14:19;;;;;;;;;;;;;;;21.93;71.36;97461.05;586743;242;63848;-66
2023/09/18 10:16:48;;;;;;;;;;;;;;;21.93;71.55;97466.41;586661;242;67018;-65
2023/09/18 10:19:33;;;;;;;;;;;;;;;21.93;71.51;97461.05;586619;240;64706;-67
2023/09/18 10:22:13;;;;;;;;;;;;;;;21.93;70.87;97454.87;586586;241;64956;-68
2023/09/18 10:24:45;;;;;;;;;;;;;;;21.93;71.21;97450.34;585925;242;67346;-68
2023/09/18 10:27:14;;;;;;;;;;;;;;;21.93;71.66;97452.20;586747;242;66949;-68
2023/09/18 10:29:44;;;;;;;;;;;;;;;21.92;71.15;97446.05;586683;242;63082;-68
2023/09/18 10:32:12;;;;;;;;;;;;;;;21.93;71.24;97449.52;586634;239;64826;-68
2023/09/18 10:34:39;;;;;;;;;;;;;;;21.93;71.70;97438.81;586775;239;64801;-68
2023/09/18 10:37:09;;;;;;;;;;;;;;;21.93;72.06;97439.64;586813;242;65096;-68
2023/09/18 10:39:39;;;;;;;;;;;;;;;21.92;71.90;97435.34;586814;242;66972;-68
2023/09/18 10:42:08;;;;;;;;;;;;;;;21.93;71.91;97433.46;586804;241;66843;-68
2023/09/18 10:44:36;;;;;;;;;;;;;;;21.93;72.04;97431.62;586813;242;64957;-68
2023/09/18 10:47:08;;;;;;;;;;;;;;;21.93;71.97;97422.76;586787;242;64630;-68
2023/09/18 10:49:36;;;;;;;;;;;;;;;21.92;71.99;97424.64;586818;242;64849;-67
2023/09/18 10:52:03;;;;;;;;;;;;;;;21.94;71.75;97429.73;586833;242;63147;-67
2023/09/18 10:54:32;;;;;;;;;;;;;;;21.93;71.64;97428.11;586790;242;66990;-67
2023/09/18 10:57:01;;;;;;;;;;;;;;;21.93;71.79;97423.59;586838;242;64698;-68
2023/09/18 10:59:30;;;;;;;;;;;;;;;21.93;71.49;97423.59;586808;242;65147;-68
2023/09/18 11:01:59;;;;;;;;;;;;;;;21.93;71.61;97428.94;586764;242;64655;-65
2023/09/18 11:04:27;;;;;;;;;;;;;;;21.95;66.82;97431.33;586804;239;64547;-66
2023/09/18 11:06:57;;;;;;;;;;;;;;;21.98;65.73;97424.64;586812;242;62783;-67
2023/09/18 11:09:26;;;;;;;;;;;;;;;21.99;68.95;97423.56;586817;242;67111;-66
2023/09/18 11:11:57;;;;;;;;;;;;;;;21.98;69.49;97413.94;586597;241;67268;-67
2023/09/18 11:14:26;;;;;;;;;;;;;;;21.96;69.54;97411.52;586460;242;62754;-66
2023/09/18 11:16:55;;;;;;;;;;;;;;;21.96;69.44;97403.49;585642;241;64854;-66
2023/09/18 11:19:25;;;;;;;;;;;;;;;21.97;69.54;97409.67;586106;242;67149;-66
2023/09/18 11:21:54;;;;;;;;;;;;;;;21.96;69.70;97408.84;586354;242;65037;-66
2023/09/18 11:24:22;;;;;;;;;;;;;;;21.95;69.70;97410.72;585992;241;66962;-67
2023/09/18 11:26:52;;;;;;;;;;;;;;;21.95;69.95;97407.25;586134;242;64968;-66
2023/09/18 11:29:23;;;;;;;;;;;;;;;21.96;69.58;97408.84;586678;239;64952;-67
2023/09/18 11:31:56;;;;;;;;;;;;;;;21.95;69.76;97405.38;590191;239;66830;-67
2023/09/18 11:34:26;;;;;;;;;;;;;;;21.95;69.67;97410.72;593909;239;66952;-67
2023/09/18 11:36:54;;;;;;;;;;;;;;;21.96;69.89;97406.17;593788;239;62411;-67
2023/09/18 11:39:36;;;;;;;;;;;;;;;21.96;70.16;97395.47;593818;239;65351;-67
2023/09/18 11:42:11;;;;;;;;;;;;;;;21.95;70.16;97400.02;593823;239;66847;-66
2023/09/18 11:44:43;;;;;;;;;;;;;;;21.94;70.17;97393.07;593223;239;62779;-67
2023/09/18 11:47:16;;;;;;;;;;;;;;;21.95;70.06;97394.66;593791;239;65106;-67
2023/09/18 11:49:45;;;;;;;;;;;;;;;21.95;70.07;97389.31;593690;239;64807;-66
2023/09/18 11:52:14;;;;;;;;;;;;;;;21.95;70.05;97386.64;593531;237;64974;-67
2023/09/18 11:54:42;;;;;;;;;;;;;;;21.96;70.08;97387.44;593659;239;66427;-67
2023/09/18 11:57:09;;;;;;;;;;;;;;;21.95;70.02;97394.66;593775;239;68613;-67
2023/09/18 11:59:42;;;;;;;;;;;;;;;21.97;69.96;97388.27;590324;239;64898;-67
2023/09/18 12:02:11;;;;;;;;;;;;;;;21.97;70.03;97388.27;593650;239;69743;-66
2023/09/18 12:04:39;;;;;;;;;;;;;;;21.95;70.04;97391.98;593558;239;68654;-67
2023/09/18 12:07:08;;;;;;;;;;;;;;;21.97;70.18;97388.27;593809;239;65391;-66
2023/09/18 12:09:35;;;;;;;;;;;;;;;21.97;70.21;97382.91;593379;239;68725;-66
2023/09/18 12:12:04;;;;;;;;;;;;;;;21.97;70.21;97389.06;593571;239;66554;-66
2023/09/18 12:14:32;;;;;;;;;;;;;;;21.98;68.53;97379.95;593665;239;64963;-66
2023/09/18 12:17:01;;;;;;;;;;;;;;;21.99;69.67;97383.42;593673;239;68895;-66
2023/09/18 12:19:28;;;;;;;;;;;;;;;21.98;69.79;97376.48;593642;239;68391;-66
2023/09/18 12:21:56;;;;;;;;;;;;;;;21.97;69.88;97377.56;593740;239;62801;-66
2023/09/18 12:24:24;;;;;;;;;;;;;;;21.97;70.00;97374.88;593973;239;68598;-67
2023/09/18 12:26:53;;;;;;;;;;;;;;;21.97;70.13;97370.33;593832;239;68899;-66
2023/09/18 12:29:21;;;;;;;;;;;;;;;21.97;70.23;97364.18;594026;239;65190;-67
2023/09/18 12:31:50;;;;;;;;;;;;;;;21.97;70.19;97364.18;593887;239;66743;-65
2023/09/18 12:34:24;;;;;;;;;;;;;;;21.96;70.21;97358.00;593944;239;68677;-66
2023/09/18 12:36:50;;;;;;;;;;;;;;;21.96;70.20;97360.67;593757;239;65234;-65
2023/09/18 12:39:23;;;;;;;;;;;;;;;21.95;70.12;97351.05;593886;239;68881;-66
2023/09/18 12:41:48;;;;;;;;;;;;;;;21.95;69.97;97351.85;593790;239;66505;-66
2023/09/18 12:44:16;;;;;;;;;;;;;;;21.95;69.91;97353.73;593987;239;62658;-66
2023/09/18 12:46:44;;;;;;;;;;;;;;;21.96;69.94;97344.62;593877;239;68550;-65
2023/09/18 12:49:18;;;;;;;;;;;;;;;21.94;70.13;97347.58;593946;239;69347;-66
2023/09/18 12:51:48;;;;;;;;;;;;;;;21.94;69.94;97350.26;593857;239;65105;-66
2023/09/18 12:54:16;;;;;;;;;;;;;;;21.94;69.96;97344.11;593475;239;66669;-66